Time;durP1;ratioP1;P1;durP2;ratioP2;P2;SDS_P1;SDS_P2;PMS_P1;PMS_P2;Temp;Humidity;BMP_temperature;BMP_pressure;BME280_temperature;BME280_humidity;BME280_pressure;Samples;Min_cycle;Max_cycle;Signal;HPM_P1;HPM_P2
2021/03/26 00:00:20;;;;;;;12.70;3.60;;;7.60;99.90;;;;;;2095413;28;20090;-71
2021/03/26 00:01:26;;;;;;;12.85;3.60;;;7.60;99.90;;;;;;2095845;28;20427;-70
2021/03/26 00:02:27;;;;;;;12.85;3.88;;;7.60;99.90;;;;;;2093205;28;20052;-71
2021/03/26 00:03:31;;;;;;;16.13;3.30;;;7.60;99.90;;;;;;2087661;28;20024;-70
2021/03/26 00:04:31;;;;;;;13.02;3.67;;;7.70;99.90;;;;;;2092883;28;20159;-70
2021/03/26 00:05:32;;;;;;;10.80;3.53;;;7.70;99.90;;;;;;2092155;28;20540;-70
2021/03/26 00:06:37;;;;;;;10.82;3.53;;;7.80;99.90;;;;;;2087756;28;20439;-70
2021/03/26 00:07:38;;;;;;;14.90;3.35;;;7.80;99.90;;;;;;2087805;28;20074;-70
2021/03/26 00:08:39;;;;;;;13.93;3.53;;;7.80;99.90;;;;;;2087667;28;20025;-70
2021/03/26 00:09:40;;;;;;;10.50;3.40;;;7.80;99.90;;;;;;2087364;28;20068;-70
2021/03/26 00:10:42;;;;;;;12.20;3.40;;;7.80;99.90;;;;;;2088418;28;20037;-71
2021/03/26 00:11:44;;;;;;;15.65;3.20;;;7.80;99.90;;;;;;2094679;28;20508;-70
2021/03/26 00:12:45;;;;;;;14.18;2.97;;;7.80;99.90;;;;;;2078049;28;20080;-70
2021/03/26 00:13:46;;;;;;;8.68;3.45;;;7.80;99.90;;;;;;2079575;28;20028;-70
2021/03/26 00:14:47;;;;;;;17.98;4.55;;;7.80;99.90;;;;;;2089468;28;20052;-70
2021/03/26 00:15:48;;;;;;;11.32;3.30;;;7.80;99.90;;;;;;2081422;28;20591;-70
2021/03/26 00:16:49;;;;;;;9.85;3.28;;;7.80;99.90;;;;;;2089797;28;20158;-70
2021/03/26 00:17:49;;;;;;;15.32;3.17;;;7.80;99.90;;;;;;2090165;28;20049;-70
2021/03/26 00:18:51;;;;;;;9.00;3.05;;;7.80;99.90;;;;;;2090250;28;20028;-70
2021/03/26 00:19:52;;;;;;;18.17;3.92;;;7.70;99.90;;;;;;2089544;28;20599;-70
2021/03/26 00:20:53;;;;;;;14.27;3.40;;;7.70;99.90;;;;;;2089642;28;20041;-70
2021/03/26 00:21:54;;;;;;;13.38;3.33;;;7.70;99.90;;;;;;2077985;28;20033;-70
2021/03/26 00:22:55;;;;;;;14.32;3.75;;;7.70;99.90;;;;;;2078795;28;20025;-70
2021/03/26 00:23:55;;;;;;;17.40;3.28;;;7.70;99.90;;;;;;2086662;28;20020;-71
2021/03/26 00:24:56;;;;;;;15.82;3.33;;;7.70;99.90;;;;;;2090190;28;20048;-71
2021/03/26 00:25:57;;;;;;;13.90;3.47;;;7.70;99.90;;;;;;2090299;28;20481;-70
2021/03/26 00:26:58;;;;;;;10.60;4.03;;;7.60;99.90;;;;;;2089370;28;20029;-70
2021/03/26 00:27:58;;;;;;;9.23;2.88;;;7.60;99.90;;;;;;2089460;28;20049;-71
2021/03/26 00:28:59;;;;;;;9.77;2.90;;;7.60;99.90;;;;;;2089980;28;20048;-70
2021/03/26 00:30:00;;;;;;;9.82;2.72;;;7.60;99.90;;;;;;2085296;28;20021;-70
2021/03/26 00:31:01;;;;;;;14.25;3.33;;;7.60;99.90;;;;;;2073722;28;20041;-70
2021/03/26 00:32:01;;;;;;;10.88;3.35;;;7.50;99.90;;;;;;2073836;28;20072;-70
2021/03/26 00:33:04;;;;;;;8.20;3.00;;;7.50;99.90;;;;;;2073857;28;20157;-70
2021/03/26 00:34:04;;;;;;;16.33;3.88;;;7.50;99.90;;;;;;2073809;28;20022;-70
2021/03/26 00:35:11;;;;;;;9.95;3.30;;;7.50;99.90;;;;;;2081268;28;20052;-70
2021/03/26 00:36:12;;;;;;;16.27;3.85;;;7.50;99.90;;;;;;2080649;28;20045;-70
2021/03/26 00:37:12;;;;;;;11.10;3.17;;;7.40;99.90;;;;;;2074080;28;20417;-70
2021/03/26 00:38:14;;;;;;;13.07;3.30;;;7.40;99.90;;;;;;2080441;28;20079;-70
2021/03/26 00:39:15;;;;;;;15.73;3.88;;;7.40;99.90;;;;;;2088279;28;20090;-70
2021/03/26 00:40:18;;;;;;;10.90;3.03;;;7.40;99.90;;;;;;2090152;28;20060;-70
2021/03/26 00:41:18;;;;;;;16.05;3.00;;;7.40;99.90;;;;;;2090094;28;20021;-70
2021/03/26 00:42:19;;;;;;;9.65;3.25;;;7.40;99.90;;;;;;2089880;28;20021;-70
2021/03/26 00:43:21;;;;;;;15.38;3.35;;;7.30;99.90;;;;;;2089481;28;20769;-71
2021/03/26 00:44:22;;;;;;;8.65;3.05;;;7.40;99.90;;;;;;2081340;28;20073;-70
2021/03/26 00:45:28;;;;;;;11.90;3.22;;;7.30;99.90;;;;;;2089357;28;20097;-70
2021/03/26 00:46:29;;;;;;;12.55;3.33;;;7.30;99.90;;;;;;2085624;28;20017;-70
2021/03/26 00:47:30;;;;;;;10.65;2.95;;;7.30;99.90;;;;;;2073688;28;20093;-70
2021/03/26 00:48:31;;;;;;;12.65;3.80;;;7.30;99.90;;;;;;2080985;28;20130;-70
2021/03/26 00:49:32;;;;;;;9.82;3.38;;;7.30;99.90;;;;;;2081338;28;20026;-70
2021/03/26 00:50:57;;;;;;;14.68;3.50;;;7.20;99.90;;;;;;2073035;28;20022;-70
2021/03/26 00:51:58;;;;;;;8.65;2.65;;;7.30;99.90;;;;;;2071500;28;20038;-71
2021/03/26 00:53:02;;;;;;;9.50;3.13;;;7.30;99.90;;;;;;2081232;28;20084;-70
2021/03/26 00:54:04;;;;;;;11.43;3.15;;;7.30;99.90;;;;;;2073685;28;20485;-70
2021/03/26 00:55:05;;;;;;;16.20;3.22;;;7.40;99.90;;;;;;2073673;28;20018;-70
2021/03/26 00:56:06;;;;;;;11.30;2.90;;;7.40;99.90;;;;;;2089294;28;20031;-70
2021/03/26 00:57:07;;;;;;;7.75;2.70;;;7.30;99.90;;;;;;2097549;28;20039;-70
2021/03/26 00:58:10;;;;;;;8.82;3.30;;;7.40;99.90;;;;;;2081753;28;20045;-70
2021/03/26 00:59:11;;;;;;;9.63;2.88;;;7.40;99.90;;;;;;2081919;28;20747;-71
2021/03/26 01:00:16;;;;;;;12.70;3.25;;;7.40;99.90;;;;;;2081854;28;20370;-70
2021/03/26 01:01:16;;;;;;;14.13;3.17;;;7.40;99.90;;;;;;2081520;28;20408;-70
2021/03/26 01:02:17;;;;;;;13.40;3.83;;;7.40;99.90;;;;;;2081892;28;20013;-71
2021/03/26 01:03:20;;;;;;;8.95;3.15;;;7.30;99.90;;;;;;2089267;28;20192;-71
2021/03/26 01:04:20;;;;;;;11.05;3.20;;;7.30;99.90;;;;;;2087615;28;20025;-70
2021/03/26 01:05:34;;;;;;;12.45;3.22;;;7.30;99.90;;;;;;2075598;28;20049;-70
2021/03/26 01:06:35;;;;;;;11.10;3.08;;;7.30;99.90;;;;;;2074456;28;20022;-70
2021/03/26 01:07:36;;;;;;;14.20;3.72;;;7.30;99.90;;;;;;2072969;28;20052;-71
2021/03/26 01:08:37;;;;;;;13.85;4.65;;;7.30;99.90;;;;;;2072923;28;20042;-70
2021/03/26 01:09:38;;;;;;;10.52;3.00;;;7.30;99.90;;;;;;2072757;28;20026;-70
2021/03/26 01:10:45;;;;;;;11.90;3.83;;;7.20;99.90;;;;;;2072929;28;20483;-70
2021/03/26 01:11:45;;;;;;;16.70;3.85;;;7.20;99.90;;;;;;2081325;28;20029;-71
2021/03/26 01:12:46;;;;;;;19.42;3.83;;;7.20;99.90;;;;;;2081287;28;20075;-70
2021/03/26 01:13:48;;;;;;;13.45;3.85;;;7.20;99.90;;;;;;2089124;28;20029;-70
2021/03/26 01:14:48;;;;;;;11.85;3.60;;;7.20;99.90;;;;;;2090214;28;20017;-70
2021/03/26 01:15:49;;;;;;;9.82;3.42;;;7.10;99.90;;;;;;2089108;28;20040;-70
2021/03/26 01:16:50;;;;;;;13.05;3.83;;;7.10;99.90;;;;;;2080954;28;20505;-70
2021/03/26 01:17:51;;;;;;;10.63;3.60;;;7.20;99.90;;;;;;2084190;28;20513;-70
2021/03/26 01:18:52;;;;;;;10.75;3.95;;;7.20;99.90;;;;;;2081299;28;20034;-70
2021/03/26 01:19:53;;;;;;;13.90;3.40;;;7.20;99.90;;;;;;2081742;28;20624;-70
2021/03/26 01:20:56;;;;;;;14.75;4.38;;;7.20;99.90;;;;;;2089297;28;20029;-70
2021/03/26 01:21:56;;;;;;;13.75;4.13;;;7.20;99.90;;;;;;2088959;28;20536;-70
2021/03/26 01:22:57;;;;;;;13.55;3.97;;;7.20;99.90;;;;;;2081045;28;20032;-70
2021/03/26 01:23:59;;;;;;;12.85;3.63;;;7.30;99.90;;;;;;2080173;28;20378;-70
2021/03/26 01:25:00;;;;;;;9.97;3.90;;;7.30;99.90;;;;;;2080084;28;20022;-71
2021/03/26 01:26:02;;;;;;;11.77;3.60;;;7.30;99.90;;;;;;2073597;28;20339;-70
2021/03/26 01:27:03;;;;;;;22.38;4.30;;;7.30;99.90;;;;;;2073332;28;20387;-70
2021/03/26 01:28:05;;;;;;;10.00;3.88;;;7.40;99.90;;;;;;2072959;28;20075;-70
2021/03/26 01:29:06;;;;;;;;;;;7.40;99.90;;;;;;2089241;28;20116;-71
2021/03/26 01:30:09;;;;;;;14.88;4.25;;;7.40;99.90;;;;;;2092464;28;19912;-70
2021/03/26 01:31:09;;;;;;;17.73;4.55;;;7.40;99.90;;;;;;2085677;28;20052;-70
2021/03/26 01:32:10;;;;;;;15.13;5.20;;;7.40;99.90;;;;;;2089212;28;20099;-70
2021/03/26 01:33:11;;;;;;;15.68;4.47;;;7.40;99.90;;;;;;2089663;28;20723;-71
2021/03/26 01:34:12;;;;;;;18.48;4.68;;;7.40;99.90;;;;;;2089825;28;20029;-70
2021/03/26 01:35:14;;;;;;;17.02;4.45;;;7.50;99.90;;;;;;2089790;28;20416;-71
2021/03/26 01:36:15;;;;;;;17.10;4.45;;;7.50;99.90;;;;;;2088967;28;20376;-70
2021/03/26 01:37:16;;;;;;;19.38;4.13;;;7.50;99.90;;;;;;2089164;28;20025;-70
2021/03/26 01:38:17;;;;;;;17.90;4.70;;;7.50;99.90;;;;;;2089307;28;20036;-70
2021/03/26 01:39:18;;;;;;;14.90;4.35;;;7.60;99.90;;;;;;2085875;28;20047;-70
2021/03/26 01:40:27;;;;;;;13.77;3.60;;;7.60;99.90;;;;;;2082091;28;20593;-70
2021/03/26 01:41:48;;;;;;;13.82;4.13;;;7.60;99.90;;;;;;2088327;28;20021;-70
2021/03/26 01:42:49;;;;;;;16.02;3.80;;;7.60;99.90;;;;;;2089502;28;20021;-70
2021/03/26 01:43:49;;;;;;;16.95;4.25;;;7.60;99.90;;;;;;2089552;28;20087;-70
2021/03/26 01:44:51;;;;;;;16.67;3.90;;;7.60;99.90;;;;;;2085524;28;20844;-70
2021/03/26 01:45:52;;;;;;;12.23;3.88;;;7.60;99.90;;;;;;2085688;28;20452;-71
2021/03/26 01:46:53;;;;;;;13.95;3.90;;;7.60;99.90;;;;;;2081362;28;20040;-70
2021/03/26 01:47:55;;;;;;;14.65;4.15;;;7.50;99.90;;;;;;2081439;28;20573;-70
2021/03/26 01:48:57;;;;;;;;;;;7.50;99.90;;;;;;2081972;28;20715;-70
2021/03/26 01:49:58;;;;;;;12.60;4.00;;;7.50;99.90;;;;;;2080628;28;19912;-70
2021/03/26 01:51:02;;;;;;;10.75;4.10;;;7.50;99.90;;;;;;2081279;28;20703;-70
2021/03/26 01:52:03;;;;;;;11.95;4.25;;;7.40;99.90;;;;;;2087153;28;20108;-70
2021/03/26 01:53:06;;;;;;;12.75;3.90;;;7.40;99.90;;;;;;2089618;28;20020;-70
2021/03/26 01:54:10;;;;;;;14.60;3.90;;;7.40;99.90;;;;;;2089519;28;20025;-71
2021/03/26 01:55:17;;;;;;;13.93;3.92;;;7.30;99.90;;;;;;2088868;28;20501;-71
2021/03/26 01:56:18;;;;;;;12.65;4.50;;;7.30;99.90;;;;;;2089117;28;20401;-70
2021/03/26 01:57:19;;;;;;;8.20;3.47;;;7.30;99.90;;;;;;2086824;28;20021;-70
2021/03/26 01:58:24;;;;;;;14.50;4.45;;;7.30;99.90;;;;;;2084220;28;20033;-70
2021/03/26 01:59:25;;;;;;;14.68;4.35;;;7.20;99.90;;;;;;2088551;28;20013;-70
2021/03/26 02:00:34;;;;;;;9.82;3.78;;;7.20;99.90;;;;;;2081256;28;20544;-72
2021/03/26 02:01:40;;;;;;;8.55;3.78;;;7.20;99.90;;;;;;2080931;28;20049;-70
2021/03/26 02:02:41;;;;;;;8.63;3.83;;;7.20;99.90;;;;;;2080657;28;20362;-70
2021/03/26 02:03:45;;;;;;;19.58;4.28;;;7.10;99.90;;;;;;2077190;28;20025;-71
2021/03/26 02:04:48;;;;;;;14.80;4.07;;;7.10;99.90;;;;;;2088782;28;20031;-70
2021/03/26 02:05:50;;;;;;;;;;;7.10;99.90;;;;;;2072939;28;20453;-71
2021/03/26 02:06:54;;;;;;;17.48;4.57;;;7.10;99.90;;;;;;2073263;28;19987;-71
2021/03/26 02:07:55;;;;;;;12.40;4.20;;;7.10;99.90;;;;;;2073167;28;20037;-70
2021/03/26 02:09:16;;;;;;;12.27;3.92;;;7.00;99.90;;;;;;2073080;28;20026;-70
2021/03/26 02:10:19;;;;;;;12.13;3.80;;;7.00;99.90;;;;;;2073147;28;20030;-70
2021/03/26 02:12:00;;;;;;;14.88;5.13;;;7.00;99.90;;;;;;2080597;28;20029;-70
2021/03/26 02:13:08;;;;;;;10.75;4.10;;;7.00;99.90;;;;;;2070755;28;20048;-71
2021/03/26 02:14:17;;;;;;;16.77;4.28;;;6.90;99.90;;;;;;2081091;28;20700;-71
2021/03/26 02:15:21;;;;;;;14.60;4.68;;;6.90;99.90;;;;;;2081384;28;20112;-71
2021/03/26 02:16:23;;;;;;;14.85;5.30;;;6.90;99.90;;;;;;2088752;28;20408;-70
2021/03/26 02:17:28;;;;;;;13.88;5.25;;;6.90;99.90;;;;;;2088677;28;20021;-70
2021/03/26 02:18:36;;;;;;;11.63;4.40;;;6.90;99.90;;;;;;2082816;28;20107;-70
2021/03/26 02:19:53;;;;;;;10.25;4.28;;;6.80;99.90;;;;;;2081071;28;20032;-70
2021/03/26 02:21:17;;;;;;;15.95;4.65;;;6.80;99.90;;;;;;2081046;28;20021;-70
2021/03/26 02:22:20;;;;;;;15.00;4.28;;;6.80;99.90;;;;;;2081073;28;20034;-70
2021/03/26 02:23:25;;;;;;;17.38;4.55;;;6.80;99.90;;;;;;2081163;28;20024;-71
2021/03/26 02:24:28;;;;;;;15.20;4.53;;;6.70;99.90;;;;;;2081072;28;20025;-70
2021/03/26 02:25:29;;;;;;;16.45;4.38;;;6.70;99.90;;;;;;2081167;28;20048;-71
2021/03/26 02:26:35;;;;;;;12.13;3.97;;;6.70;99.90;;;;;;2079895;28;20525;-71
2021/03/26 02:27:37;;;;;;;13.23;3.85;;;6.70;99.90;;;;;;2080245;28;20033;-71
2021/03/26 02:28:38;;;;;;;11.20;4.10;;;6.60;99.90;;;;;;2088822;28;20091;-71
2021/03/26 02:29:39;;;;;;;9.20;4.63;;;6.70;99.90;;;;;;2080250;28;20484;-71
2021/03/26 02:30:44;;;;;;;11.18;4.50;;;6.70;99.90;;;;;;2080483;28;20031;-71
2021/03/26 02:31:44;;;;;;;12.75;4.15;;;6.70;99.90;;;;;;2080592;28;20029;-71
2021/03/26 02:32:46;;;;;;;12.00;3.92;;;6.60;99.90;;;;;;2081206;28;20021;-71
2021/03/26 02:33:48;;;;;;;14.15;4.55;;;6.60;99.90;;;;;;2081289;28;20128;-70
2021/03/26 02:35:10;;;;;;;16.35;4.68;;;6.60;99.90;;;;;;2081130;28;20148;-71
2021/03/26 02:36:17;;;;;;;8.18;4.00;;;6.60;99.90;;;;;;2076440;28;20022;-70
2021/03/26 02:37:17;;;;;;;15.68;5.00;;;6.60;99.90;;;;;;2073014;28;20056;-70
2021/03/26 02:38:28;;;;;;;9.05;4.28;;;6.60;99.90;;;;;;2073211;28;20029;-71
2021/03/26 02:39:40;;;;;;;14.77;3.85;;;6.60;99.90;;;;;;2073072;28;20026;-71
2021/03/26 02:40:52;;;;;;;9.85;3.83;;;6.50;99.90;;;;;;2073165;28;20026;-71
2021/03/26 02:41:57;;;;;;;11.55;4.22;;;6.50;99.90;;;;;;2072325;28;20452;-71
2021/03/26 02:43:16;;;;;;;11.07;4.05;;;6.50;99.90;;;;;;2072330;28;20673;-71
2021/03/26 02:44:31;;;;;;;10.25;4.00;;;6.50;99.90;;;;;;2072807;28;20657;-70
2021/03/26 02:45:45;;;;;;;9.13;3.80;;;6.50;99.90;;;;;;2083192;28;20017;-71
2021/03/26 02:47:22;;;;;;;11.38;4.00;;;6.50;99.90;;;;;;2080459;28;20179;-71
2021/03/26 02:48:33;;;;;;;11.23;4.07;;;6.50;99.90;;;;;;2080889;28;20067;-71
2021/03/26 02:49:46;;;;;;;9.82;3.95;;;6.50;99.90;;;;;;2081136;28;20602;-71
2021/03/26 02:50:57;;;;;;;8.70;4.07;;;6.50;99.90;;;;;;2080380;28;20104;-71
2021/03/26 02:52:13;;;;;;;14.13;4.30;;;6.50;99.90;;;;;;2079019;28;20021;-71
2021/03/26 02:53:30;;;;;;;12.18;4.43;;;6.40;99.90;;;;;;2080484;28;20030;-71
2021/03/26 02:54:45;;;;;;;12.43;4.22;;;6.40;99.90;;;;;;2080915;28;20467;-71
2021/03/26 02:55:51;;;;;;;9.68;3.88;;;6.40;99.90;;;;;;2081068;28;20083;-71
2021/03/26 02:56:54;;;;;;;11.70;4.55;;;6.40;99.90;;;;;;2076535;28;20033;-71
2021/03/26 02:58:05;;;;;;;13.70;4.22;;;6.30;99.90;;;;;;2064174;28;20026;-71
2021/03/26 02:59:12;;;;;;;11.15;4.60;;;6.30;99.90;;;;;;2064472;28;20145;-71
2021/03/26 03:00:28;;;;;;;13.13;4.50;;;6.30;99.90;;;;;;2064641;28;20014;-71
2021/03/26 03:01:40;;;;;;;10.38;4.47;;;6.30;99.90;;;;;;2080255;28;20053;-71
2021/03/26 03:02:42;;;;;;;16.23;4.28;;;6.30;99.90;;;;;;2077693;28;20032;-71
2021/03/26 03:03:47;;;;;;;12.73;4.22;;;6.30;99.90;;;;;;2065132;28;20109;-71
2021/03/26 03:04:55;;;;;;;13.75;4.50;;;6.30;99.90;;;;;;2065779;28;20030;-70
2021/03/26 03:06:04;;;;;;;11.93;4.03;;;6.30;99.90;;;;;;2076514;28;20045;-70
2021/03/26 03:07:14;;;;;;;13.38;4.22;;;6.30;99.90;;;;;;2071600;28;20434;-71
2021/03/26 03:08:17;;;;;;;11.23;4.25;;;6.30;99.90;;;;;;2064167;28;20118;-71
2021/03/26 03:09:19;;;;;;;11.90;4.00;;;6.30;99.90;;;;;;2064374;28;20030;-71
2021/03/26 03:11:02;;;;;;;16.60;4.60;;;6.30;99.90;;;;;;2079031;28;20051;-71
2021/03/26 03:12:26;;;;;;;16.35;3.90;;;6.40;99.90;;;;;;2080293;28;20025;-71
2021/03/26 03:13:39;;;;;;;13.93;4.22;;;6.40;99.90;;;;;;2081070;28;20615;-71
2021/03/26 03:14:45;;;;;;;;;;;6.40;99.90;;;;;;2081607;28;20502;-71
2021/03/26 03:15:50;;;;;;;13.57;3.75;;;6.40;99.90;;;;;;2081285;28;20300;-71
2021/03/26 03:17:01;;;;;;;13.80;3.92;;;6.40;99.90;;;;;;2081064;28;20029;-71
2021/03/26 03:18:20;;;;;;;9.45;4.20;;;6.40;99.90;;;;;;2078436;28;20025;-71
2021/03/26 03:19:38;;;;;;;19.05;4.53;;;6.40;99.90;;;;;;2072339;28;20026;-72
2021/03/26 03:20:41;;;;;;;11.02;4.13;;;6.40;99.90;;;;;;2078327;28;20025;-71
2021/03/26 03:21:51;;;;;;;14.82;4.43;;;6.40;99.90;;;;;;2077643;28;20022;-71
2021/03/26 03:23:04;;;;;;;17.55;4.57;;;6.40;99.90;;;;;;2071056;28;20034;-71
2021/03/26 03:24:04;;;;;;;;;;;6.40;99.90;;;;;;2065480;28;20572;-71
2021/03/26 03:25:22;;;;;;;14.25;4.32;;;6.40;99.90;;;;;;2080508;28;19905;-71
2021/03/26 03:26:26;;;;;;;16.95;4.82;;;6.40;99.90;;;;;;2071683;28;20081;-71
2021/03/26 03:27:45;;;;;;;13.80;4.30;;;6.50;99.90;;;;;;2071983;28;20441;-72
2021/03/26 03:28:51;;;;;;;14.15;4.30;;;6.40;99.90;;;;;;2064872;28;20057;-71
2021/03/26 03:29:57;;;;;;;13.10;3.95;;;6.50;99.90;;;;;;2064741;28;20019;-71
2021/03/26 03:31:22;;;;;;;11.30;3.88;;;6.50;99.90;;;;;;2071419;28;20465;-71
2021/03/26 03:32:44;;;;;;;9.52;3.90;;;6.50;99.90;;;;;;2075468;28;20112;-70
2021/03/26 03:34:00;;;;;;;12.23;4.15;;;6.50;99.90;;;;;;2077921;28;20409;-71
2021/03/26 03:35:38;;;;;;;14.38;4.38;;;6.50;99.90;;;;;;2073033;28;20105;-71
2021/03/26 03:36:51;;;;;;;8.27;3.83;;;6.50;99.90;;;;;;2073014;28;20474;-71
2021/03/26 03:38:23;;;;;;;12.38;4.55;;;6.50;99.90;;;;;;2072194;28;20030;-71
2021/03/26 03:39:34;;;;;;;12.18;4.45;;;6.50;99.90;;;;;;2071658;28;20656;-71
2021/03/26 03:40:45;;;;;;;13.02;4.60;;;6.50;99.90;;;;;;2073843;28;20026;-72
2021/03/26 03:41:55;;;;;;;12.85;4.75;;;6.50;99.90;;;;;;2080328;28;20033;-70
2021/03/26 03:43:10;;;;;;;11.50;4.63;;;6.50;99.90;;;;;;2079282;28;20079;-71
2021/03/26 03:44:29;;;;;;;11.30;4.65;;;6.50;99.90;;;;;;2073049;28;20022;-71
2021/03/26 03:45:42;;;;;;;14.75;4.75;;;6.40;99.90;;;;;;2072704;28;20022;-71
2021/03/26 03:46:48;;;;;;;14.40;5.10;;;6.40;99.90;;;;;;2073078;28;20635;-71
2021/03/26 03:47:55;;;;;;;11.65;5.18;;;6.40;99.90;;;;;;2077450;28;21130;-71
2021/03/26 03:49:28;;;;;;;16.20;5.32;;;6.50;99.90;;;;;;2074251;28;20100;-70
2021/03/26 03:50:52;;;;;;;15.18;5.53;;;6.40;99.90;;;;;;2075063;28;20018;-71
2021/03/26 03:52:05;;;;;;;14.98;5.40;;;6.50;99.90;;;;;;2074542;28;20042;-71
2021/03/26 03:53:22;;;;;;;17.35;6.50;;;6.40;99.90;;;;;;2074544;28;20728;-72
2021/03/26 03:54:46;;;;;;;11.73;6.05;;;6.50;99.90;;;;;;2076677;28;20048;-71
2021/03/26 03:56:04;;;;;;;10.00;5.68;;;6.50;99.90;;;;;;2081758;28;20056;-70
2021/03/26 03:57:16;;;;;;;18.55;5.95;;;6.50;99.90;;;;;;2079872;28;20398;-72
2021/03/26 03:58:39;;;;;;;14.13;6.90;;;6.50;99.90;;;;;;2074337;28;20030;-71
2021/03/26 03:59:51;;;;;;;20.38;7.25;;;6.50;99.90;;;;;;2074491;28;20126;-71
2021/03/26 04:01:08;;;;;;;19.13;7.20;;;6.50;99.90;;;;;;2081678;28;20076;-71
2021/03/26 04:02:24;;;;;;;20.33;7.03;;;6.50;99.90;;;;;;2079872;28;20049;-70
2021/03/26 04:03:32;;;;;;;12.27;6.70;;;6.50;99.90;;;;;;2083717;28;20036;-72
2021/03/26 04:05:01;;;;;;;16.90;6.45;;;6.50;99.90;;;;;;2076517;28;20529;-71
2021/03/26 04:06:34;;;;;;;20.30;6.72;;;6.60;99.90;;;;;;2073976;28;20018;-72
2021/03/26 04:08:00;;;;;;;15.80;6.50;;;6.60;99.90;;;;;;2065445;28;20026;-71
2021/03/26 04:09:09;;;;;;;20.67;7.18;;;6.60;99.90;;;;;;2074109;28;20026;-72
2021/03/26 04:10:14;;;;;;;17.38;6.60;;;6.60;99.90;;;;;;2074339;28;20122;-72
2021/03/26 04:11:21;;;;;;;19.40;8.13;;;6.60;99.90;;;;;;2073773;28;20026;-73
2021/03/26 04:12:32;;;;;;;16.85;7.28;;;6.60;99.90;;;;;;2068028;28;20109;-71
2021/03/26 04:13:40;;;;;;;18.63;7.43;;;6.70;99.90;;;;;;2075009;28;20074;-72
2021/03/26 04:15:03;;;;;;;17.52;7.20;;;6.70;99.90;;;;;;2081007;28;20456;-71
2021/03/26 04:16:04;;;;;;;;;;;6.70;99.90;;;;;;2074536;28;20074;-72
2021/03/26 04:17:12;;;;;;;19.70;7.32;;;6.70;99.90;;;;;;2073715;28;19969;-72
2021/03/26 04:18:19;;;;;;;14.60;7.55;;;6.70;99.90;;;;;;2073971;28;20026;-72
2021/03/26 04:19:44;;;;;;;19.80;7.93;;;6.70;99.90;;;;;;2073680;28;20030;-70
2021/03/26 04:20:50;;;;;;;23.35;8.70;;;6.70;99.90;;;;;;2073882;28;20609;-70
2021/03/26 04:21:57;;;;;;;19.55;7.80;;;6.70;99.90;;;;;;2073100;28;20053;-72
2021/03/26 04:23:04;;;;;;;17.02;8.07;;;6.70;99.90;;;;;;2074196;28;20057;-72
2021/03/26 04:24:17;;;;;;;19.45;8.30;;;6.70;99.90;;;;;;2081621;28;20026;-72
2021/03/26 04:25:24;;;;;;;19.85;8.10;;;6.70;99.90;;;;;;2073633;28;20030;-72
2021/03/26 04:26:35;;;;;;;22.42;8.25;;;6.70;99.90;;;;;;2073872;28;20374;-71
2021/03/26 04:27:39;;;;;;;21.02;9.27;;;6.70;99.90;;;;;;2081801;28;20026;-70
2021/03/26 04:28:47;;;;;;;14.10;8.27;;;6.80;99.90;;;;;;2073655;28;20026;-73
2021/03/26 04:30:16;;;;;;;15.85;8.38;;;6.80;99.90;;;;;;2074543;28;20026;-72
2021/03/26 04:31:24;;;;;;;23.40;8.30;;;6.70;99.90;;;;;;2069828;28;20033;-72
2021/03/26 04:32:25;;;;;;;23.42;9.15;;;6.60;99.90;;;;;;2069883;28;20022;-72
2021/03/26 04:33:26;;;;;;;23.38;8.13;;;6.60;99.90;;;;;;2087458;28;20033;-72
2021/03/26 04:34:27;;;;;;;22.42;8.95;;;6.60;99.90;;;;;;2093073;28;20139;-73
2021/03/26 04:35:29;;;;;;;20.95;8.68;;;6.60;99.90;;;;;;2074246;28;20029;-72
2021/03/26 04:37:04;;;;;;;21.23;8.80;;;6.70;99.90;;;;;;2073664;28;20032;-72
2021/03/26 04:38:20;;;;;;;19.50;9.18;;;6.60;99.90;;;;;;2091935;28;20025;-72
2021/03/26 04:39:35;;;;;;;23.55;8.98;;;6.70;99.90;;;;;;2087964;28;20021;-72
2021/03/26 04:40:46;;;;;;;19.38;9.18;;;6.60;99.90;;;;;;2082193;28;20025;-71
2021/03/26 04:42:01;;;;;;;18.92;8.40;;;6.60;99.90;;;;;;2082575;28;20059;-71
2021/03/26 04:43:11;;;;;;;23.75;8.75;;;6.60;99.90;;;;;;2081714;28;20433;-73
2021/03/26 04:44:39;;;;;;;22.77;9.02;;;6.50;99.90;;;;;;2082126;28;20034;-72
2021/03/26 04:46:14;;;;;;;17.30;9.10;;;6.50;99.90;;;;;;2071155;28;20513;-72
2021/03/26 04:47:26;;;;;;;24.65;9.60;;;6.50;99.90;;;;;;2074407;28;20022;-74
2021/03/26 04:48:36;;;;;;;21.23;8.90;;;6.50;99.90;;;;;;2074591;28;20474;-74
2021/03/26 04:49:40;;;;;;;19.52;8.95;;;6.50;99.90;;;;;;2074625;28;20065;-73
2021/03/26 04:50:54;;;;;;;17.08;8.73;;;6.50;99.90;;;;;;2074434;28;20437;-74
2021/03/26 04:52:03;;;;;;;21.83;8.10;;;6.50;99.90;;;;;;2077842;28;20461;-73
2021/03/26 04:53:32;;;;;;;22.70;9.63;;;6.50;99.90;;;;;;2082470;28;20485;-72
2021/03/26 04:54:44;;;;;;;18.75;8.95;;;6.60;99.90;;;;;;2078926;28;20034;-73
2021/03/26 04:55:53;;;;;;;;;;;6.60;99.90;;;;;;2067077;28;20026;-74
2021/03/26 04:57:11;;;;;;;20.80;8.13;;;6.60;99.90;;;;;;2066292;28;19972;-73
2021/03/26 04:58:20;;;;;;;18.05;8.35;;;6.70;99.90;;;;;;2066403;28;20026;-73
2021/03/26 04:59:26;;;;;;;24.52;7.93;;;6.70;99.90;;;;;;2065491;28;20489;-72
2021/03/26 05:00:53;;;;;;;23.15;8.32;;;6.70;99.90;;;;;;2066013;28;20379;-72
2021/03/26 05:01:55;;;;;;;19.75;8.13;;;6.70;99.90;;;;;;2063520;28;20061;-71
2021/03/26 05:03:07;;;;;;;17.25;8.60;;;6.70;99.90;;;;;;2066334;28;20025;-72
2021/03/26 05:04:13;;;;;;;18.05;8.63;;;6.70;99.90;;;;;;2074238;28;20030;-72
2021/03/26 05:05:17;;;;;;;24.02;8.30;;;6.80;99.90;;;;;;2074525;28;20064;-71
2021/03/26 05:06:22;;;;;;;19.67;8.23;;;6.80;99.90;;;;;;2074530;28;20030;-71
2021/03/26 05:07:32;;;;;;;19.40;8.48;;;6.90;99.90;;;;;;2082032;28;20021;-73
2021/03/26 05:08:34;;;;;;;18.85;8.93;;;6.90;99.90;;;;;;2073455;28;20387;-72
2021/03/26 05:09:41;;;;;;;19.88;8.43;;;6.90;99.90;;;;;;2074393;28;20022;-73
2021/03/26 05:10:44;;;;;;;17.88;8.77;;;6.80;99.90;;;;;;2074897;28;20022;-72
2021/03/26 05:11:51;;;;;;;21.08;8.55;;;6.80;99.90;;;;;;2074891;28;20022;-72
2021/03/26 05:12:56;;;;;;;19.17;8.65;;;6.70;99.90;;;;;;2074489;28;20030;-73
2021/03/26 05:14:03;;;;;;;23.08;8.90;;;6.70;99.90;;;;;;2067253;28;20542;-74
2021/03/26 05:15:11;;;;;;;18.65;9.27;;;6.70;99.90;;;;;;2066976;28;20033;-72
2021/03/26 05:16:42;;;;;;;17.70;9.25;;;6.70;99.90;;;;;;2074761;28;20604;-72
2021/03/26 05:18:22;;;;;;;29.75;10.02;;;6.70;99.90;;;;;;2074124;28;20541;-71
2021/03/26 05:19:52;;;;;;;34.47;11.73;;;6.70;99.90;;;;;;2074667;28;20049;-71
2021/03/26 05:21:19;;;;;;;27.98;9.73;;;6.70;99.90;;;;;;2090540;28;20032;-71
2021/03/26 05:22:28;;;;;;;25.60;10.20;;;6.60;99.90;;;;;;2084049;28;20474;-71
2021/03/26 05:23:53;;;;;;;21.83;9.80;;;6.60;99.90;;;;;;2074590;28;20028;-72
2021/03/26 05:25:15;;;;;;;18.85;9.60;;;6.60;99.90;;;;;;2073375;28;20029;-73
2021/03/26 05:26:17;;;;;;;23.67;9.90;;;6.70;99.90;;;;;;2068481;28;20118;-72
2021/03/26 05:27:18;;;;;;;23.27;9.40;;;6.70;99.90;;;;;;2065625;28;20034;-72
2021/03/26 05:28:21;;;;;;;27.80;9.43;;;6.60;99.90;;;;;;2066295;28;20023;-72
2021/03/26 05:29:23;;;;;;;21.35;9.77;;;6.60;99.90;;;;;;2073656;28;20503;-72
2021/03/26 05:30:31;;;;;;;17.75;8.90;;;6.60;99.90;;;;;;2073671;28;20084;-72
2021/03/26 05:31:43;;;;;;;23.98;9.65;;;6.60;99.90;;;;;;2066248;28;20109;-72
2021/03/26 05:32:50;;;;;;;19.75;9.15;;;6.60;99.90;;;;;;2073548;28;20026;-73
2021/03/26 05:33:57;;;;;;;18.98;9.05;;;6.60;99.90;;;;;;2073489;28;20030;-72
2021/03/26 05:35:27;;;;;;;17.20;8.93;;;6.60;99.90;;;;;;2066110;28;20085;-73
2021/03/26 05:36:42;;;;;;;21.35;8.85;;;6.60;99.90;;;;;;2069116;28;20026;-72
2021/03/26 05:37:59;;;;;;;22.83;8.77;;;6.60;99.90;;;;;;2073849;28;20532;-72
2021/03/26 05:39:11;;;;;;;22.45;9.05;;;6.60;99.90;;;;;;2073417;28;20034;-72
2021/03/26 05:40:32;;;;;;;20.83;9.32;;;6.60;99.90;;;;;;2081581;28;20068;-72
2021/03/26 05:42:00;;;;;;;19.92;8.88;;;6.50;99.90;;;;;;2078814;28;20179;-72
2021/03/26 05:43:13;;;;;;;20.42;9.02;;;6.50;99.90;;;;;;2070096;28;20022;-71
2021/03/26 05:44:29;;;;;;;29.15;10.15;;;6.50;99.90;;;;;;2066120;28;20041;-71
2021/03/26 05:45:36;;;;;;;25.45;9.05;;;6.50;99.90;;;;;;2065180;28;20062;-71
2021/03/26 05:46:58;;;;;;;18.10;9.20;;;6.50;99.90;;;;;;2065859;28;20124;-72
2021/03/26 05:48:15;;;;;;;22.20;9.02;;;6.40;99.90;;;;;;2065208;28;20022;-72
2021/03/26 05:49:24;;;;;;;24.17;8.45;;;6.50;99.90;;;;;;2065487;28;20057;-71
2021/03/26 05:50:48;;;;;;;20.10;8.43;;;6.50;99.90;;;;;;2066100;28;20022;-72
2021/03/26 05:52:19;;;;;;;19.45;8.30;;;6.60;99.90;;;;;;2065181;28;20097;-72
2021/03/26 05:53:24;;;;;;;19.17;8.85;;;6.60;99.90;;;;;;2074068;28;20084;-72
2021/03/26 05:54:36;;;;;;;23.50;7.75;;;6.60;99.90;;;;;;2072947;28;20084;-75
2021/03/26 05:55:54;;;;;;;22.48;8.68;;;6.60;99.90;;;;;;2065003;28;20466;-72
2021/03/26 05:57:18;;;;;;;15.10;7.50;;;6.60;99.90;;;;;;2065465;28;20498;-72
2021/03/26 05:58:24;;;;;;;18.45;8.20;;;6.60;99.90;;;;;;2066587;28;20037;-71